Time;durP1;ratioP1;P1;durP2;ratioP2;P2;SDS_P1;SDS_P2;PMS_P1;PMS_P2;Temp;Humidity;BMP_temperature;BMP_pressure;BME280_temperature;BME280_humidity;BME280_pressure;Samples;Min_cycle;Max_cycle;Signal;HPM_P1;HPM_P2
2022/10/04 00:01:54;;;;;;;;;28.50;24.00;;;;;15.42;62.10;101797.06;5095837;27;45654;-68
2022/10/04 00:04:23;;;;;;;;;22.50;19.00;;;;;15.33;61.84;101779.78;5084665;27;45545;-74
2022/10/04 00:06:51;;;;;;;;;27.50;23.25;;;;;15.38;62.38;101791.59;5090868;27;45786;-72
2022/10/04 00:09:25;;;;;;;;;21.00;19.75;;;;;15.06;61.78;101744.19;5092261;27;46443;-70
2022/10/04 00:11:54;;;;;;;;;26.50;23.50;;;;;15.08;62.12;101738.84;5094131;27;45353;-70
2022/10/04 00:14:38;;;;;;;;;24.75;22.25;;;;;14.98;62.29;101728.72;5094324;27;45766;-70
2022/10/04 00:17:12;;;;;;;;;24.25;18.50;;;;;15.37;61.88;101806.81;5090630;27;45357;-73
2022/10/04 00:19:46;;;;;;;;;23.75;18.25;;;;;15.30;62.12;101780.63;5095190;27;45419;-71
2022/10/04 00:22:16;;;;;;;;;23.00;20.25;;;;;15.37;61.98;101784.38;5094148;27;45502;-69
2022/10/04 00:25:06;;;;;;;;;22.25;19.50;;;;;15.33;62.35;101785.16;5093109;27;45409;-69
2022/10/04 00:27:32;;;;;;;;;23.75;20.50;;;;;15.32;62.40;101783.34;5094757;27;45499;-71
2022/10/04 00:30:00;;;;;;;;;29.75;23.25;;;;;15.29;62.86;101798.56;5095703;27;45573;-72
2022/10/04 00:32:29;;;;;;;;;29.75;22.00;;;;;15.28;62.41;101791.34;5095658;27;46149;-71
2022/10/04 00:34:55;;;;;;;;;19.50;19.50;;;;;15.22;62.64;101787.59;5095624;27;45565;-71
2022/10/04 00:37:23;;;;;;;;;22.75;21.00;;;;;15.29;62.35;101797.63;5092961;27;45503;-69
2022/10/04 00:40:09;;;;;;;;;20.00;18.75;;;;;14.92;62.31;101733.06;5092677;27;45583;-71
2022/10/04 00:42:49;;;;;;;;;25.00;20.75;;;;;15.26;62.47;101786.78;5092947;27;46203;-73
2022/10/04 00:45:49;;;;;;;;;24.25;20.00;;;;;15.24;62.53;101797.53;5094299;27;45503;-70
2022/10/04 00:48:36;;;;;;;;;26.25;19.00;;;;;15.23;62.43;101781.38;5089591;27;45499;-72
2022/10/04 00:51:11;;;;;;;;;25.75;23.75;;;;;15.22;62.40;101785.81;5094609;27;45687;-70
2022/10/04 00:53:39;;;;;;;;;21.25;16.75;;;;;15.22;62.43;101775.06;5092994;27;45498;-69
2022/10/04 00:56:25;;;;;;;;;29.25;20.25;;;;;14.70;62.38;101685.91;5095172;27;45546;-70
2022/10/04 00:58:56;;;;;;;;;17.25;17.25;;;;;15.20;62.64;101779.50;5087921;27;45566;-70
2022/10/04 01:01:26;;;;;;;;;25.50;21.50;;;;;14.97;62.60;101743.06;5095395;27;45242;-69
2022/10/04 01:03:55;;;;;;;;;22.00;20.25;;;;;15.19;62.85;101774.06;5094765;27;45416;-69
2022/10/04 01:06:22;;;;;;;;;22.50;21.00;;;;;15.11;62.85;101757.72;5095628;27;45332;-70
2022/10/04 01:08:53;;;;;;;;;27.50;23.25;;;;;15.06;63.06;101748.63;5095357;27;45322;-71
2022/10/04 01:11:27;;;;;;;;;31.00;24.00;;;;;15.18;62.82;101765.09;5094814;27;45611;-72
2022/10/04 01:14:16;;;;;;;;;22.50;20.25;;;;;15.17;62.94;101767.75;5086954;27;47317;-72
2022/10/04 01:16:42;;;;;;;;;26.25;21.25;;;;;15.03;62.88;101730.66;5082590;27;45802;-69
2022/10/04 01:19:23;;;;;;;;;27.25;20.75;;;;;15.14;62.70;101751.53;5117458;27;45258;-71
2022/10/04 01:22:08;;;;;;;;;23.50;20.50;;;;;15.12;63.03;101743.41;5111842;27;45083;-70
2022/10/04 01:24:36;;;;;;;;;29.25;27.00;;;;;14.96;63.15;101719.69;5105154;27;45293;-69
2022/10/04 01:27:02;;;;;;;;;21.25;18.00;;;;;15.07;62.96;101745.97;5108610;27;45172;-68
2022/10/04 01:29:30;;;;;;;;;20.50;17.25;;;;;14.98;62.90;101724.25;5107717;27;45038;-70
2022/10/04 01:31:58;;;;;;;;;24.75;19.75;;;;;15.07;63.06;101732.53;5108448;27;45183;-72
2022/10/04 01:34:27;;;;;;;;;23.50;21.00;;;;;15.01;63.09;101726.09;5107493;27;45444;-70
2022/10/04 01:36:56;;;;;;;;;23.75;19.50;;;;;14.99;63.08;101712.59;5108891;27;44885;-69
2022/10/04 01:39:24;;;;;;;;;27.75;25.00;;;;;15.06;62.89;101735.19;5106800;27;46298;-69
2022/10/04 01:42:10;;;;;;;;;28.25;22.25;;;;;15.04;63.01;101735.16;5108481;27;45252;-70
2022/10/04 01:45:08;;;;;;;;;21.50;20.00;;;;;14.43;63.04;101626.03;5109334;27;46090;-71
2022/10/04 01:47:38;;;;;;;;;26.75;23.00;;;;;14.88;63.06;101706.03;5096362;27;45112;-70
2022/10/04 01:50:11;;;;;;;;;24.25;21.00;;;;;14.99;63.22;101726.06;5089550;27;45924;-69
2022/10/04 01:53:00;;;;;;;;;28.50;22.50;;;;;14.98;63.06;101726.94;5088783;28;45099;-72
2022/10/04 01:55:32;;;;;;;;;25.00;19.75;;;;;14.60;63.48;101658.75;5086354;28;45753;-71
2022/10/04 01:58:08;;;;;;;;;26.00;22.00;;;;;14.71;63.29;101678.75;5088340;28;44959;-69
2022/10/04 02:00:38;;;;;;;;;21.25;18.25;;;;;14.55;63.08;101648.75;5087036;28;45382;-71
2022/10/04 02:03:27;;;;;;;;;25.75;22.50;;;;;14.74;63.55;101681.50;5070105;28;45226;-71
2022/10/04 02:05:57;;;;;;;;;26.25;20.00;;;;;14.86;63.24;101700.63;5087507;28;45548;-68
2022/10/04 02:08:28;;;;;;;;;22.50;21.50;;;;;14.93;63.15;101704.38;5090742;28;45203;-69
2022/10/04 02:10:55;;;;;;;;;22.00;18.75;;;;;14.88;63.62;101700.66;5087947;28;45120;-70
2022/10/04 02:13:26;;;;;;;;;25.00;21.50;;;;;14.87;63.60;101696.19;5082002;28;45508;-70
2022/10/04 02:15:52;;;;;;;;;28.75;22.00;;;;;14.77;63.41;101688.75;5068721;28;45560;-70
2022/10/04 02:18:20;;;;;;;;;24.25;19.00;;;;;14.76;63.37;101679.75;5053204;28;45310;-68
2022/10/04 02:20:48;;;;;;;;;24.50;23.50;;;;;14.82;63.68;101684.41;5070687;28;45419;-70
2022/10/04 02:23:18;;;;;;;;;24.25;20.00;;;;;14.66;63.83;101654.41;5073576;28;45346;-68
2022/10/04 02:25:43;;;;;;;;;32.75;29.25;;;;;14.52;64.13;101640.63;5071880;28;46462;-69
2022/10/04 02:28:11;;;;;;;;;22.50;19.75;;;;;14.72;63.96;101673.41;5072293;28;45541;-70
2022/10/04 02:30:43;;;;;;;;;24.00;20.00;;;;;14.70;63.86;101668.84;5071912;28;45590;-71
2022/10/04 02:33:09;;;;;;;;;25.00;21.25;;;;;14.61;64.09;101653.41;5072865;28;46203;-69
2022/10/04 02:35:46;;;;;;;;;17.75;15.25;;;;;14.68;64.05;101668.84;5072245;28;46757;-69
2022/10/04 02:38:11;;;;;;;;;21.75;19.50;;;;;14.61;63.89;101657.88;5073199;28;45599;-70
2022/10/04 02:40:57;;;;;;;;;18.75;17.50;;;;;14.62;64.01;101670.44;5073525;28;45667;-70
2022/10/04 02:43:37;;;;;;;;;20.25;19.25;;;;;14.61;64.13;101666.84;5067799;28;44974;-72
2022/10/04 02:46:12;;;;;;;;;18.75;18.75;;;;;14.48;63.80;101651.25;5073943;28;46510;-70
2022/10/04 02:48:52;;;;;;;;;19.25;18.00;;;;;14.61;64.20;101666.84;5078468;27;45507;-68
2022/10/04 02:51:32;;;;;;;;;22.50;20.00;;;;;14.41;64.14;101646.59;5097760;27;45431;-68
2022/10/04 02:54:29;;;;;;;;;21.25;16.25;;;;;14.04;64.17;101589.22;5096622;27;45532;-68
2022/10/04 02:56:56;;;;;;;;;21.25;19.25;;;;;14.42;64.40;101657.41;5094410;27;45663;-70
2022/10/04 02:59:22;;;;;;;;;20.50;17.75;;;;;14.41;64.51;101663.63;5097848;27;45360;-70
2022/10/04 03:01:52;;;;;;;;;23.75;17.50;;;;;14.28;64.75;101648.06;5096189;27;45361;-71
2022/10/04 03:04:22;;;;;;;;;19.75;19.00;;;;;14.29;64.69;101658.84;5095282;27;45445;-70
2022/10/04 03:06:49;;;;;;;;;21.00;18.25;;;;;14.34;65.24;101658.97;5095704;27;45475;-68
2022/10/04 03:09:18;;;;;;;;;20.00;17.25;;;;;14.09;64.92;101618.03;5095429;27;45570;-70
2022/10/04 03:11:45;;;;;;;;;16.50;16.25;;;;;14.32;64.83;101655.31;5096518;27;45383;-71
2022/10/04 03:14:25;;;;;;;;;23.00;21.50;;;;;13.88;65.01;101587.94;5094801;27;45488;-70
2022/10/04 03:16:54;;;;;;;;;21.00;17.25;;;;;14.26;65.38;101655.19;5091046;27;45608;-70
2022/10/04 03:19:23;;;;;;;;;20.25;19.50;;;;;14.16;65.61;101636.13;5095904;27;45494;-69
2022/10/04 03:21:52;;;;;;;;;20.50;19.75;;;;;14.12;65.51;101636.00;5094317;27;45953;-71
2022/10/04 03:24:22;;;;;;;;;32.25;23.25;;;;;14.26;65.51;101647.13;5095836;27;45568;-68
2022/10/04 03:26:55;;;;;;;;;20.75;18.75;;;;;14.18;65.68;101634.38;5093875;27;46831;-70
2022/10/04 03:29:23;;;;;;;;;19.50;17.75;;;;;14.25;65.30;101635.44;5095181;27;46276;-69
2022/10/04 03:31:51;;;;;;;;;21.75;19.50;;;;;14.26;65.35;101631.00;5095158;27;45466;-70
2022/10/04 03:34:50;;;;;;;;;18.75;15.00;;;;;14.20;65.62;101634.41;5095779;27;45555;-69
2022/10/04 03:37:19;;;;;;;;;22.00;16.75;;;;;14.05;65.62;101613.44;5093860;27;47335;-69
2022/10/04 03:39:47;;;;;;;;;18.25;15.75;;;;;14.17;65.71;101627.22;5094133;27;45591;-68
2022/10/04 03:42:19;;;;;;;;;18.00;16.75;;;;;14.13;65.50;101625.28;5092182;27;45450;-69
2022/10/04 03:44:46;;;;;;;;;17.75;16.00;;;;;13.95;66.31;101604.22;5095038;27;45497;-69
2022/10/04 03:47:20;;;;;;;;;16.25;16.25;;;;;14.05;65.69;101620.59;5092793;27;46225;-68
2022/10/04 03:49:47;;;;;;;;;28.75;20.00;;;;;13.99;65.96;101624.94;5080087;27;45642;-69
2022/10/04 03:52:21;;;;;;;;;22.00;18.75;;;;;14.02;66.24;101610.66;5075095;28;45470;-72
2022/10/04 03:54:50;;;;;;;;;17.75;16.50;;;;;13.80;65.84;101576.97;5075133;28;45536;-69
2022/10/04 03:57:17;;;;;;;;;25.00;17.00;;;;;13.97;65.87;101620.38;5045086;28;46996;-69
2022/10/04 03:59:42;;;;;;;;;18.25;16.50;;;;;13.89;66.22;101600.47;5074580;28;45730;-69
2022/10/04 04:02:20;;;;;;;;;19.25;14.25;;;;;13.94;66.30;101614.94;5071601;28;45977;-68
2022/10/04 04:04:46;;;;;;;;;20.25;19.25;;;;;13.97;66.79;101615.00;5072975;28;46835;-69
2022/10/04 04:07:24;;;;;;;;;17.00;16.50;;;;;13.89;66.44;101614.84;5074725;28;46350;-70
2022/10/04 04:10:04;;;;;;;;;21.75;19.00;;;;;13.76;66.21;101602.84;5074985;28;45334;-69
2022/10/04 04:12:41;;;;;;;;;24.50;16.00;;;;;13.93;66.10;101629.25;5072631;28;46186;-72
2022/10/04 04:15:12;;;;;;;;;27.75;17.75;;;;;13.72;66.10;101600.91;5072490;28;45572;-71
2022/10/04 04:17:46;;;;;;;;;20.75;19.25;;;;;13.83;66.40;101634.34;5076776;27;45484;-70
2022/10/04 04:20:29;;;;;;;;;23.50;18.75;;;;;13.81;66.76;101636.09;5057339;28;45595;-72
2022/10/04 04:23:17;;;;;;;;;24.25;20.50;;;;;13.80;66.56;101639.63;5072092;28;45548;-74
2022/10/04 04:25:50;;;;;;;;;25.00;20.50;;;;;13.60;66.91;101601.50;5077604;28;45531;-69
2022/10/04 04:28:41;;;;;;;;;18.00;18.00;;;;;13.80;67.28;101634.28;5073855;28;46353;-70
2022/10/04 04:31:18;;;;;;;;;22.00;15.50;;;;;13.81;66.66;101646.84;5070025;28;45505;-70
2022/10/04 04:34:00;;;;;;;;;21.25;17.75;;;;;13.69;66.55;101624.09;5069660;27;45619;-72
2022/10/04 04:36:28;;;;;;;;;19.00;16.75;;;;;13.75;67.11;101632.34;5072201;28;45402;-71
2022/10/04 04:41:57;;;;;;;;;27.50;21.75;;;;;13.87;66.25;101639.81;5072359;28;45374;-72
2022/10/04 04:44:22;;;;;;;;;20.00;16.00;;;;;13.73;66.42;101623.34;5070976;28;46156;-71
2022/10/04 04:46:48;;;;;;;;;25.50;22.50;;;;;13.81;66.50;101640.56;5074964;28;45369;-72
2022/10/04 04:49:17;;;;;;;;;33.00;24.50;;;;;13.71;67.20;101639.41;5093383;27;47562;-71
2022/10/04 04:51:50;;;;;;;;;23.25;19.00;;;;;13.42;66.90;101601.00;5087668;27;45487;-72
2022/10/04 04:54:17;;;;;;;;;30.50;26.75;;;;;13.66;67.60;101645.50;5092347;27;45677;-69
2022/10/04 04:56:43;;;;;;;;;25.00;22.50;;;;;13.69;66.75;101641.13;5095411;27;45450;-71
2022/10/04 04:59:10;;;;;;;;;21.75;17.50;;;;;13.49;66.73;101611.03;5093217;27;46357;-70
2022/10/04 05:01:45;;;;;;;;;25.75;19.00;;;;;13.69;67.13;101651.84;5093990;27;45514;-70
2022/10/04 05:04:13;;;;;;;;;27.00;22.75;;;;;13.66;67.42;101654.50;5092342;27;45559;-71
2022/10/04 05:06:41;;;;;;;;;21.00;20.25;;;;;13.38;67.43;101605.38;5093544;27;45737;-71
2022/10/04 05:09:21;;;;;;;;;23.75;21.25;;;;;13.63;67.86;101646.34;5093519;27;46306;-73
2022/10/04 05:11:48;;;;;;;;;25.50;21.50;;;;;13.53;68.12;101629.06;5109803;27;45427;-69
2022/10/04 05:14:16;;;;;;;;;27.50;22.00;;;;;13.61;67.24;101637.31;5097879;27;45388;-70
2022/10/04 05:16:49;;;;;;;;;25.25;22.50;;;;;13.54;67.98;101612.06;5098023;27;45372;-70
2022/10/04 05:19:20;;;;;;;;;24.25;21.50;;;;;13.74;67.55;101644.88;5091268;27;46208;-71
2022/10/04 05:21:47;;;;;;;;;36.75;32.25;;;;;13.73;67.85;101648.41;5094329;27;45317;-70
2022/10/04 05:24:18;;;;;;;;;31.75;21.75;;;;;13.76;67.66;101645.81;5093439;27;45267;-70
2022/10/04 05:26:49;;;;;;;;;29.75;25.00;;;;;13.30;67.40;101568.38;5092836;27;45435;-69
2022/10/04 05:29:18;;;;;;;;;28.25;22.00;;;;;13.77;67.86;101636.88;5094118;27;45657;-71
2022/10/04 05:31:53;;;;;;;;;27.75;26.25;;;;;13.80;67.70;101636.97;5098457;27;45466;-75
2022/10/04 05:34:29;;;;;;;;;29.50;24.00;;;;;13.78;67.49;101635.13;5102427;27;45389;-71
2022/10/04 05:37:18;;;;;;;;;24.00;20.75;;;;;13.80;67.74;101636.97;5098486;27;45522;-69
2022/10/04 05:39:57;;;;;;;;;28.00;20.75;;;;;13.81;67.25;101638.78;5090483;27;45688;-69
2022/10/04 05:42:37;;;;;;;;;22.75;20.75;;;;;13.62;67.78;101606.91;5103622;27;45407;-70
2022/10/04 05:45:32;;;;;;;;;26.25;20.50;;;;;13.74;68.02;101650.25;5105175;27;45405;-70
2022/10/04 05:48:00;;;;;;;;;20.50;20.50;;;;;13.53;67.84;101593.22;5078867;27;45548;-74
2022/10/04 05:50:40;;;;;;;;;28.00;22.25;;;;;13.40;68.02;101592.00;5089394;28;46378;-70
2022/10/04 05:53:18;;;;;;;;;29.75;24.25;;;;;13.71;68.69;101642.09;5083138;28;45497;-70
2022/10/04 05:56:00;;;;;;;;;24.00;22.25;;;;;13.61;67.97;101621.19;5053974;28;44993;-70
2022/10/04 05:58:48;;;;;;;;;16.00;14.00;;;;;13.53;68.47;101607.59;5082350;28;45697;-70
2022/10/04 06:01:31;;;;;;;;;21.50;20.25;;;;;13.73;68.28;101637.66;5088234;28;45664;-72
2022/10/04 06:04:38;;;;;;;;;25.50;23.00;;;;;13.62;68.13;101609.59;5090955;28;45107;-71
2022/10/04 06:07:12;;;;;;;;;20.25;18.50;;;;;13.68;68.67;101633.03;5090203;28;44935;-71
2022/10/04 06:09:59;;;;;;;;;32.00;27.25;;;;;13.69;68.34;101632.16;5082733;28;45277;-71
2022/10/04 06:12:29;;;;;;;;;26.75;24.00;;;;;13.66;68.34;101633.00;5082333;28;45648;-73
2022/10/04 06:15:36;;;;;;;;;23.50;20.00;;;;;13.67;68.71;101625.84;5080649;28;45412;-70
2022/10/04 06:18:17;;;;;;;;;29.25;25.50;;;;;13.67;68.62;101625.84;5080363;28;45547;-70
2022/10/04 06:20:45;;;;;;;;;32.25;21.25;;;;;13.68;68.07;101633.03;5072026;28;45472;-72
2022/10/04 06:23:14;;;;;;;;;30.75;26.75;;;;;13.65;68.36;101639.22;5074768;28;46708;-72
2022/10/04 06:25:42;;;;;;;;;26.25;26.00;;;;;13.62;68.42;101642.72;5075064;27;45513;-74
2022/10/04 06:28:15;;;;;;;;;25.75;21.75;;;;;13.64;68.71;101642.78;5074896;28;45443;-71
2022/10/04 06:31:14;;;;;;;;;32.50;27.25;;;;;13.62;68.34;101642.72;5073633;27;45549;-70
2022/10/04 06:33:45;;;;;;;;;30.00;24.00;;;;;13.63;68.54;101643.66;5059628;28;47964;-70
2022/10/04 06:36:31;;;;;;;;;23.75;17.00;;;;;13.57;68.43;101651.53;5077501;28;45519;-70
2022/10/04 06:39:05;;;;;;;;;24.50;20.50;;;;;13.09;68.47;101569.59;5089531;28;45375;-72
2022/10/04 06:41:52;;;;;;;;;34.00;26.50;;;;;13.60;68.81;101657.00;5091665;28;45252;-72
2022/10/04 06:44:35;;;;;;;;;31.00;26.00;;;;;13.57;68.42;101632.72;5079216;28;46011;-73
2022/10/04 06:47:19;;;;;;;;;27.50;21.75;;;;;13.63;68.79;101654.41;5083142;28;45241;-73
2022/10/04 06:49:55;;;;;;;;;25.00;22.50;;;;;13.34;68.40;101618.66;5094519;27;45464;-69
2022/10/04 06:52:47;;;;;;;;;26.25;25.25;;;;;13.60;68.23;101652.53;5095167;27;45454;-72
2022/10/04 06:55:41;;;;;;;;;36.00;23.50;;;;;13.23;67.79;101591.47;5092922;27;46411;-72
2022/10/04 06:58:32;;;;;;;;;40.75;34.00;;;;;13.51;68.50;101644.19;5098797;27;45396;-75
2022/10/04 07:01:00;;;;;;;;;33.00;26.25;;;;;13.63;68.02;101663.34;5102165;27;45504;-73
2022/10/04 07:03:36;;;;;;;;;27.00;22.50;;;;;13.30;68.09;101593.47;5094720;27;45691;-70
2022/10/04 07:06:09;;;;;;;;;35.75;29.75;;;;;13.57;68.22;101625.56;5094931;27;48552;-74
2022/10/04 07:08:50;;;;;;;;;40.50;30.00;;;;;13.60;67.67;101631.03;5094093;27;45491;-71
2022/10/04 07:11:22;;;;;;;;;29.50;27.00;;;;;13.68;67.61;101649.13;5091437;27;45437;-71
2022/10/04 07:14:02;;;;;;;;;40.50;30.50;;;;;13.56;67.71;101626.47;5090446;27;45484;-73
2022/10/04 07:16:36;;;;;;;;;31.25;27.25;;;;;13.77;67.55;101652.09;5096748;27;45551;-73
2022/10/04 07:19:08;;;;;;;;;32.00;29.75;;;;;13.83;67.31;101655.84;5092604;27;45414;-71
2022/10/04 07:22:11;;;;;;;;;37.25;31.50;;;;;13.79;67.03;101647.66;5095894;27;45491;-71
2022/10/04 07:24:37;;;;;;;;;34.50;29.00;;;;;13.83;67.15;101655.84;5094646;27;45502;-71
2022/10/04 07:27:08;;;;;;;;;36.25;28.75;;;;;13.67;67.05;101624.06;5111333;27;45901;-71
2022/10/04 07:29:41;;;;;;;;;34.50;30.00;;;;;13.70;67.50;101625.94;5098954;27;45444;-73
2022/10/04 07:32:35;;;;;;;;;28.75;25.25;;;;;13.92;66.84;101660.56;5095953;27;45651;-69
2022/10/04 07:35:11;;;;;;;;;34.25;27.00;;;;;13.97;66.85;101668.75;5082083;27;45404;-74
2022/10/04 07:38:06;;;;;;;;;34.25;26.75;;;;;13.96;66.95;101672.31;5088151;27;47375;-72
2022/10/04 07:40:41;;;;;;;;;34.75;30.25;;;;;13.99;67.12;101667.00;5095382;27;45434;-71
2022/10/04 07:43:19;;;;;;;;;38.50;31.00;;;;;13.90;66.64;101640.81;5091683;27;45671;-72
2022/10/04 07:45:46;;;;;;;;;29.00;28.00;;;;;14.04;66.64;101654.63;5092366;27;46321;-72
2022/10/04 07:48:21;;;;;;;;;32.50;30.00;;;;;13.98;66.13;101638.34;5095513;27;46083;-72
2022/10/04 07:51:14;;;;;;;;;35.25;30.25;;;;;14.14;65.87;101663.84;5095351;27;45361;-71
2022/10/04 07:53:51;;;;;;;;;29.25;26.75;;;;;13.71;66.27;101588.38;5092763;27;45475;-71
2022/10/04 07:56:29;;;;;;;;;35.25;30.50;;;;;14.22;66.05;101666.72;5095747;27;45438;-70
2022/10/04 07:59:13;;;;;;;;;36.75;32.50;;;;;14.14;65.74;101651.31;5095635;27;46078;-75
2022/10/04 08:01:48;;;;;;;;;36.75;30.00;;;;;13.80;65.96;101580.56;5095773;27;45339;-71
2022/10/04 08:04:31;;;;;;;;;50.00;39.00;;;;;14.30;65.91;101663.34;5095872;27;45407;-71
2022/10/04 08:07:01;;;;;;;;;37.25;31.25;;;;;14.36;65.72;101654.53;5096058;27;45535;-72
2022/10/04 08:09:42;;;;;;;;;37.00;30.75;;;;;14.34;65.52;101656.28;5095249;27;46422;-72
2022/10/04 08:12:44;;;;;;;;;35.50;30.75;;;;;14.33;65.37;101652.69;5095479;27;45490;-72
2022/10/04 08:15:13;;;;;;;;;36.50;28.50;;;;;14.36;65.34;101646.47;5093398;27;45384;-70
2022/10/04 08:17:59;;;;;;;;;39.25;30.50;;;;;14.44;65.25;101649.38;5095444;27;45364;-70
2022/10/04 08:20:49;;;;;;;;;35.00;29.25;;;;;14.48;65.01;101644.09;5088867;27;46541;-71
2022/10/04 08:23:35;;;;;;;;;34.75;30.00;;;;;14.57;64.88;101652.38;5095260;27;45438;-72
2022/10/04 08:26:08;;;;;;;;;35.75;31.75;;;;;14.35;64.61;101597.19;5096250;27;45374;-72
2022/10/04 08:32:06;;;;;;;;;35.00;32.50;;;;;14.73;64.69;101652.78;5094380;27;45877;-73
2022/10/04 08:34:51;;;;;;;;;40.75;32.00;;;;;14.78;64.34;101655.59;5091045;27;45474;-70
2022/10/04 08:37:35;;;;;;;;;40.50;33.25;;;;;14.84;64.05;101663.81;5093001;27;45542;-74
2022/10/04 08:40:07;;;;;;;;;39.25;32.50;;;;;14.87;64.24;101674.66;5095178;27;45527;-74
2022/10/04 08:42:32;;;;;;;;;45.50;31.25;;;;;14.88;63.99;101680.06;5090891;27;45969;-71
2022/10/04 08:45:33;;;;;;;;;32.00;28.50;;;;;14.92;63.92;101681.06;5094396;27;45435;-73
2022/10/04 08:48:23;;;;;;;;;40.25;30.00;;;;;15.02;63.49;101677.69;5092973;27;45467;-73
2022/10/04 08:51:26;;;;;;;;;44.00;35.25;;;;;15.08;63.40;101688.59;5093861;27;45477;-74
2022/10/04 08:54:23;;;;;;;;;47.25;32.75;;;;;15.08;63.54;101687.72;5093098;27;45753;-73
2022/10/04 08:57:53;;;;;;;;;42.50;34.00;;;;;15.14;63.18;101686.91;5090268;27;45425;-70
2022/10/04 09:00:51;;;;;;;;;38.75;32.75;;;;;15.19;63.06;101680.75;5020535;28;45340;-71
2022/10/04 09:03:56;;;;;;;;;45.00;34.00;;;;;15.21;63.12;101687.09;5089506;27;45316;-72
2022/10/04 09:06:39;;;;;;;;;44.00;33.00;;;;;15.23;63.28;101682.66;5093981;27;46088;-72
2022/10/04 09:09:43;;;;;;;;;43.75;33.75;;;;;15.30;62.82;101678.31;5089184;27;45441;-73
2022/10/04 09:12:21;;;;;;;;;44.75;35.00;;;;;15.37;63.12;101685.63;5094654;27;45887;-76
2022/10/04 09:15:15;;;;;;;;;46.50;34.25;;;;;15.40;62.38;101680.31;5091907;27;45531;-73
2022/10/04 09:17:45;;;;;;;;;47.00;34.75;;;;;15.48;62.42;101684.09;5094681;27;45514;-72
2022/10/04 09:20:50;;;;;;;;;37.50;32.75;;;;;15.53;62.27;101681.50;5094198;27;45314;-73
2022/10/04 09:23:33;;;;;;;;;41.25;34.00;;;;;15.53;62.10;101680.59;5094204;27;45284;-73
2022/10/04 09:26:05;;;;;;;;;46.75;36.00;;;;;15.62;62.07;101689.78;5094249;27;45604;-71
2022/10/04 09:29:05;;;;;;;;;40.25;33.00;;;;;15.70;61.91;101692.63;5092636;27;48522;-70
2022/10/04 09:31:49;;;;;;;;;49.50;39.00;;;;;15.81;61.93;101683.00;5087781;27;45469;-73
2022/10/04 09:34:21;;;;;;;;;45.00;35.50;;;;;16.01;61.13;101675.28;5093998;27;45694;-73
2022/10/04 09:37:20;;;;;;;;;33.50;31.25;;;;;16.17;60.43;101681.88;5093895;27;45444;-70
2022/10/04 09:40:24;;;;;;;;;44.75;35.00;;;;;16.18;60.28;101655.81;5091206;27;45898;-72
2022/10/04 09:43:11;;;;;;;;;38.25;32.50;;;;;16.36;60.47;101666.94;5084047;27;45334;-72
2022/10/04 09:46:15;;;;;;;;;45.00;37.00;;;;;16.48;60.11;101658.16;5094055;27;45451;-75
2022/10/04 09:48:44;;;;;;;;;46.25;35.75;;;;;16.55;59.20;101669.97;5089999;27;45331;-73
2022/10/04 09:51:28;;;;;;;;;48.50;38.50;;;;;16.11;59.06;101583.81;5093372;27;45548;-72
2022/10/04 09:53:54;;;;;;;;;45.75;35.00;;;;;16.62;58.85;101658.38;5093730;27;45411;-75
2022/10/04 09:56:49;;;;;;;;;42.00;33.50;;;;;16.64;59.54;101663.81;5093503;27;45503;-73
2022/10/04 09:59:37;;;;;;;;;47.75;37.00;;;;;16.67;59.13;101664.75;5093014;27;45299;-74
2022/10/04 10:02:27;;;;;;;;;48.50;34.50;;;;;16.69;59.03;101660.28;5093734;27;46291;-72
2022/10/04 10:05:23;;;;;;;;;48.00;40.00;;;;;16.76;58.70;101656.81;5093502;27;45479;-74
2022/10/04 10:08:17;;;;;;;;;54.25;38.25;;;;;16.35;58.57;101568.06;5091934;27;45754;-72
2022/10/04 10:14:16;;;;;;;;;35.75;30.75;;;;;16.93;58.62;101646.28;5086636;27;45722;-73
2022/10/04 10:17:05;;;;;;;;;47.50;40.25;;;;;17.01;58.34;101640.09;5093327;27;45455;-72
2022/10/04 10:19:59;;;;;;;;;52.50;39.00;;;;;17.07;58.40;101646.47;5093956;27;45341;-71
2022/10/04 10:22:55;;;;;;;;;46.00;37.50;;;;;17.18;58.20;101634.94;5090682;27;45405;-75
2022/10/04 10:25:26;;;;;;;;;48.50;39.00;;;;;17.13;58.18;101629.47;5095238;27;45434;-73
2022/10/04 10:28:05;;;;;;;;;55.50;39.75;;;;;17.26;57.63;101620.66;5094739;27;45430;-74
2022/10/04 10:30:49;;;;;;;;;40.50;33.50;;;;;17.33;57.77;101627.03;5094771;27;45382;-73
2022/10/04 10:33:24;;;;;;;;;42.25;35.00;;;;;17.23;57.45;101604.41;5092554;27;45495;-72
2022/10/04 10:36:22;;;;;;;;;31.75;26.25;;;;;17.31;57.69;101607.22;5092928;27;46547;-74
2022/10/04 10:39:16;;;;;;;;;43.25;35.25;;;;;17.40;57.77;101604.59;5092692;27;45313;-74
2022/10/04 10:41:54;;;;;;;;;41.50;34.50;;;;;17.55;57.11;101609.28;5092785;27;45421;-76
2022/10/04 10:44:48;;;;;;;;;42.25;34.75;;;;;17.58;57.41;101611.13;5091904;27;45490;-72
2022/10/04 10:47:40;;;;;;;;;43.75;33.75;;;;;17.62;57.17;101611.19;5093039;27;45469;-75
2022/10/04 10:50:28;;;;;;;;;46.50;36.00;;;;;17.70;56.95;101616.63;5081484;27;45502;-75
2022/10/04 10:53:15;;;;;;;;;36.75;34.00;;;;;17.77;56.82;101610.44;5093003;27;45380;-74
2022/10/04 10:55:59;;;;;;;;;47.00;40.00;;;;;17.85;56.75;101606.00;5092664;27;45461;-72
2022/10/04 10:58:46;;;;;;;;;44.00;34.00;;;;;17.85;56.52;101603.31;5086995;27;46201;-73
2022/10/04 11:01:29;;;;;;;;;40.25;34.50;;;;;17.91;56.53;101610.59;5091037;27;45531;-71
2022/10/04 11:04:13;;;;;;;;;38.00;27.75;;;;;17.94;56.30;101605.22;5092752;27;45402;-74
2022/10/04 11:06:56;;;;;;;;;46.00;35.50;;;;;17.98;56.55;101603.44;5088041;27;45488;-74
2022/10/04 11:09:33;;;;;;;;;51.00;38.00;;;;;17.96;56.49;101597.13;5091765;27;45533;-75
2022/10/04 11:12:23;;;;;;;;;43.75;33.50;;;;;18.04;56.24;101607.13;5095098;27;45740;-73
2022/10/04 11:15:28;;;;;;;;;33.75;30.50;;;;;17.98;56.00;101579.13;5096266;27;45650;-74
2022/10/04 11:17:59;;;;;;;;;38.00;34.00;;;;;18.13;55.94;101602.69;5096124;27;45723;-73
2022/10/04 11:21:09;;;;;;;;;35.00;31.75;;;;;18.07;56.39;101600.84;5096262;27;45419;-73
2022/10/04 11:23:53;;;;;;;;;32.25;26.75;;;;;18.18;55.99;101615.38;5095768;27;45381;-74
2022/10/04 11:26:38;;;;;;;;;37.25;31.75;;;;;18.19;56.08;101614.47;5094898;27;45329;-73
2022/10/04 11:29:24;;;;;;;;;39.75;30.00;;;;;18.09;56.16;101590.94;5084592;27;45539;-74
2022/10/04 11:31:59;;;;;;;;;41.00;30.75;;;;;18.27;55.89;101619.94;5090728;27;46482;-70
2022/10/04 11:34:43;;;;;;;;;33.75;29.50;;;;;18.32;56.19;101622.69;5090976;27;45575;-73
2022/10/04 11:37:30;;;;;;;;;42.00;32.75;;;;;18.35;55.65;101623.63;5095669;27;45400;-72
2022/10/04 11:40:21;;;;;;;;;30.75;27.25;;;;;18.33;55.77;101617.31;5095978;27;45579;-73
2022/10/04 11:43:08;;;;;;;;;29.67;19.00;;;;;18.39;55.76;101622.75;5084400;27;45520;-73
2022/10/04 11:45:39;;;;;;;;;32.50;25.25;;;;;18.37;55.33;101626.34;5095533;27;45548;-74
2022/10/04 11:48:28;;;;;;;;;34.25;25.50;;;;;18.38;56.11;101623.66;5095618;27;45622;-71
2022/10/04 11:51:20;;;;;;;;;38.50;30.75;;;;;18.48;55.69;101621.00;5095765;27;45710;-74
2022/10/04 11:54:06;;;;;;;;;28.00;23.00;;;;;18.52;55.59;101612.03;5092164;27;46083;-76
2022/10/04 11:56:59;;;;;;;;;24.00;20.67;;;;;18.58;55.60;101612.09;5094815;27;45468;-73
2022/10/04 11:59:37;;;;;;;;;26.33;21.67;;;;;18.62;55.57;101608.47;5092237;27;45515;-73
2022/10/04 12:02:25;;;;;;;;;19.67;17.33;;;;;18.65;55.22;101599.50;5095667;27;45458;-71
2022/10/04 12:05:06;;;;;;;;;21.00;16.33;;;;;18.67;55.17;101598.59;5095189;27;46008;-74
2022/10/04 12:08:02;;;;;;;;;20.67;17.00;;;;;18.70;54.92;101604.03;5090684;27;45494;-75
2022/10/04 12:10:28;;;;;;;;;18.33;12.67;;;;;18.51;55.21;101575.03;5093790;27;45431;-73
2022/10/04 12:13:00;;;;;;;;;15.67;11.33;;;;;18.71;54.89;101613.03;5095723;27;45312;-73